Time;durP1;ratioP1;P1;durP2;ratioP2;P2;SDS_P1;SDS_P2;PMS_P1;PMS_P2;Temp;Humidity;BMP_temperature;BMP_pressure;BME280_temperature;BME280_humidity;BME280_pressure;Samples;Min_cycle;Max_cycle;Signal;HPM_P1;HPM_P2
2022/03/25 00:01:43;;;;;;;20.52;13.35;;;6.30;82.80;;;;;;5090967;28;20565;-71
2022/03/25 00:04:10;;;;;;;23.35;13.80;;;6.30;83.30;;;;;;5091386;28;20230;-71
2022/03/25 00:06:37;;;;;;;19.05;14.25;;;6.20;83.60;;;;;;5090395;28;20224;-71
2022/03/25 00:09:03;;;;;;;19.92;13.80;;;6.10;83.50;;;;;;5091097;28;20207;-71
2022/03/25 00:11:31;;;;;;;22.92;12.52;;;6.20;83.60;;;;;;5090799;28;20269;-71
2022/03/25 00:13:58;;;;;;;23.40;14.73;;;6.10;83.70;;;;;;5091000;28;20215;-71
2022/03/25 00:16:25;;;;;;;19.70;13.30;;;6.00;84.30;;;;;;5090712;28;20242;-71
2022/03/25 00:18:52;;;;;;;17.23;12.57;;;6.00;83.80;;;;;;5090250;28;20226;-72
2022/03/25 00:21:19;;;;;;;20.67;13.30;;;6.00;83.90;;;;;;5091156;28;20195;-72
2022/03/25 00:23:46;;;;;;;17.60;11.85;;;6.00;84.80;;;;;;5090679;28;20200;-71
2022/03/25 00:26:13;;;;;;;17.70;12.15;;;5.90;85.00;;;;;;5091025;28;20300;-71
2022/03/25 00:28:41;;;;;;;22.80;13.10;;;5.90;85.10;;;;;;5089877;28;20301;-72
2022/03/25 00:31:08;;;;;;;19.88;13.55;;;5.90;85.20;;;;;;5090633;28;20227;-72
2022/03/25 00:33:35;;;;;;;20.92;13.52;;;5.90;85.30;;;;;;5091025;28;20199;-71
2022/03/25 00:36:03;;;;;;;17.50;12.40;;;5.80;85.40;;;;;;5101118;28;20226;-70
2022/03/25 00:38:30;;;;;;;20.73;14.35;;;5.80;85.60;;;;;;5111185;28;20674;-72
2022/03/25 00:40:57;;;;;;;21.23;14.30;;;5.80;85.20;;;;;;5111344;28;20195;-71
2022/03/25 00:43:24;;;;;;;23.83;15.25;;;5.80;85.70;;;;;;5112105;28;20624;-71
2022/03/25 00:45:53;;;;;;;20.50;14.35;;;5.80;85.20;;;;;;5110702;28;20662;-71
2022/03/25 00:48:19;;;;;;;20.58;14.50;;;5.80;85.30;;;;;;5110637;28;20762;-71
2022/03/25 00:50:46;;;;;;;23.60;13.07;;;5.80;85.50;;;;;;5110890;28;20219;-71
2022/03/25 00:53:13;;;;;;;20.23;14.45;;;5.80;84.90;;;;;;5110605;28;20199;-70
2022/03/25 00:55:39;;;;;;;19.77;14.27;;;5.80;84.30;;;;;;5110679;28;20214;-71
2022/03/25 00:58:06;;;;;;;23.80;14.27;;;5.80;84.30;;;;;;5109900;28;20202;-71
2022/03/25 01:00:33;;;;;;;19.23;13.93;;;5.80;84.50;;;;;;5110990;28;20202;-72
2022/03/25 01:03:01;;;;;;;23.20;14.65;;;5.80;84.40;;;;;;5110481;28;20195;-72
2022/03/25 01:05:28;;;;;;;17.15;12.88;;;5.70;84.40;;;;;;5110982;28;20223;-72
2022/03/25 01:07:54;;;;;;;18.92;13.57;;;5.70;84.30;;;;;;5110168;28;20202;-72
2022/03/25 01:10:23;;;;;;;17.95;13.60;;;5.70;84.60;;;;;;5110772;28;20218;-72
2022/03/25 01:12:49;;;;;;;17.90;13.15;;;5.70;84.40;;;;;;5110712;28;20206;-71
2022/03/25 01:15:16;;;;;;;20.80;13.35;;;5.70;84.50;;;;;;5110521;28;20222;-71
2022/03/25 01:17:43;;;;;;;21.50;13.23;;;5.70;84.70;;;;;;5110108;28;20222;-72
2022/03/25 01:20:11;;;;;;;20.67;14.10;;;5.60;84.70;;;;;;5110466;28;20233;-71
2022/03/25 01:22:38;;;;;;;18.67;12.55;;;5.50;85.20;;;;;;5110614;28;20210;-71
2022/03/25 01:25:06;;;;;;;23.83;13.63;;;5.50;85.60;;;;;;5110438;28;20219;-71
2022/03/25 01:27:33;;;;;;;18.05;13.10;;;5.50;85.00;;;;;;5111848;28;20246;-71
2022/03/25 01:29:59;;;;;;;20.35;13.30;;;5.40;85.20;;;;;;5114590;28;20199;-71
2022/03/25 01:32:26;;;;;;;18.63;12.95;;;5.40;85.40;;;;;;5114357;28;20199;-70
2022/03/25 01:34:53;;;;;;;20.25;13.73;;;5.30;85.70;;;;;;5114207;28;20230;-73
2022/03/25 01:37:23;;;;;;;23.05;13.82;;;5.20;86.00;;;;;;5113859;28;20210;-71
2022/03/25 01:39:50;;;;;;;20.70;13.98;;;5.20;87.00;;;;;;5114331;28;20206;-70
2022/03/25 01:42:16;;;;;;;19.98;13.70;;;5.10;87.40;;;;;;5114309;28;20230;-71
2022/03/25 01:44:43;;;;;;;21.45;13.73;;;5.00;87.70;;;;;;5113894;28;20233;-71
2022/03/25 01:47:16;;;;;;;20.60;14.38;;;4.90;87.90;;;;;;5113776;28;20195;-71
2022/03/25 01:49:43;;;;;;;24.05;14.43;;;4.90;88.10;;;;;;5113880;28;20199;-71
2022/03/25 01:52:10;;;;;;;21.35;14.27;;;4.90;88.00;;;;;;5114124;28;20268;-71
2022/03/25 01:54:38;;;;;;;18.83;12.43;;;4.80;88.30;;;;;;5113569;28;20207;-72
2022/03/25 01:57:08;;;;;;;20.83;13.75;;;4.80;88.70;;;;;;5113568;28;20594;-70
2022/03/25 01:59:35;;;;;;;22.65;13.80;;;4.80;89.00;;;;;;5113642;28;20231;-70
2022/03/25 02:02:04;;;;;;;23.52;14.77;;;4.80;89.10;;;;;;5113974;28;20195;-71
2022/03/25 02:04:31;;;;;;;21.10;14.20;;;4.80;89.30;;;;;;5113761;28;20203;-70
2022/03/25 02:06:58;;;;;;;24.55;14.27;;;4.70;89.10;;;;;;5112839;28;20203;-72
2022/03/25 02:09:26;;;;;;;22.10;13.88;;;4.70;89.20;;;;;;5113946;28;20199;-71
2022/03/25 02:11:54;;;;;;;22.33;14.60;;;4.70;89.30;;;;;;5113243;28;20215;-71
2022/03/25 02:14:21;;;;;;;24.02;14.43;;;4.60;89.30;;;;;;5120716;28;20206;-71
2022/03/25 02:16:49;;;;;;;21.13;13.27;;;4.60;89.60;;;;;;5113447;28;20222;-71
2022/03/25 02:19:18;;;;;;;20.27;13.55;;;4.50;89.80;;;;;;5114000;28;20650;-71
2022/03/25 02:21:48;;;;;;;20.35;14.50;;;4.50;89.80;;;;;;5113665;28;20195;-70
2022/03/25 02:24:16;;;;;;;20.80;13.45;;;4.50;90.00;;;;;;5113318;28;20230;-70
2022/03/25 02:26:44;;;;;;;21.92;13.98;;;4.40;90.00;;;;;;5112633;28;20757;-70
2022/03/25 02:29:13;;;;;;;19.98;13.27;;;4.40;90.20;;;;;;5113192;28;20240;-71
2022/03/25 02:31:40;;;;;;;23.40;12.98;;;4.40;90.00;;;;;;5113527;28;20214;-71
2022/03/25 02:34:08;;;;;;;21.67;13.75;;;4.40;90.00;;;;;;5113064;28;20203;-71
2022/03/25 02:36:37;;;;;;;21.23;13.32;;;4.30;90.00;;;;;;5112964;28;20234;-72
2022/03/25 02:39:05;;;;;;;20.50;13.50;;;4.30;89.80;;;;;;5113007;28;20204;-70
2022/03/25 02:41:32;;;;;;;16.77;12.77;;;4.30;89.70;;;;;;5113320;28;20202;-70
2022/03/25 02:43:59;;;;;;;24.50;12.65;;;4.30;89.80;;;;;;5113398;28;20199;-70
2022/03/25 02:46:26;;;;;;;22.58;12.85;;;4.20;89.70;;;;;;5113284;28;20234;-71
2022/03/25 02:48:53;;;;;;;14.80;12.32;;;4.20;89.80;;;;;;5112728;28;20614;-71
2022/03/25 02:51:20;;;;;;;18.95;13.85;;;4.20;89.80;;;;;;5112817;28;20227;-71
2022/03/25 02:53:46;;;;;;;21.30;13.68;;;4.10;89.40;;;;;;5113179;28;20210;-71
2022/03/25 02:56:14;;;;;;;21.45;13.85;;;4.10;89.30;;;;;;5112696;28;20223;-71
2022/03/25 02:58:41;;;;;;;20.38;13.02;;;4.10;89.80;;;;;;5112381;28;20200;-71
2022/03/25 03:01:08;;;;;;;19.83;12.25;;;4.10;90.00;;;;;;5113294;28;20678;-71
2022/03/25 03:03:35;;;;;;;20.05;12.82;;;4.10;89.90;;;;;;5112640;28;20199;-71
2022/03/25 03:06:02;;;;;;;22.75;12.68;;;4.00;89.70;;;;;;5112737;28;20222;-71
2022/03/25 03:08:30;;;;;;;18.85;13.13;;;4.00;89.20;;;;;;5112188;28;20230;-72
2022/03/25 03:10:57;;;;;;;19.75;12.70;;;4.00;89.50;;;;;;5112564;28;20250;-72
2022/03/25 03:13:25;;;;;;;20.70;13.43;;;4.00;89.70;;;;;;5112765;28;20199;-71
2022/03/25 03:15:52;;;;;;;19.73;13.00;;;3.90;90.00;;;;;;5112371;28;20225;-72
2022/03/25 03:18:20;;;;;;;19.45;12.40;;;3.80;90.30;;;;;;5112164;28;20290;-70
2022/03/25 03:20:47;;;;;;;21.30;12.38;;;3.80;90.30;;;;;;5112021;28;20222;-71
2022/03/25 03:23:15;;;;;;;19.85;13.25;;;3.70;90.30;;;;;;5112661;28;20203;-71
2022/03/25 03:25:41;;;;;;;19.65;12.60;;;3.70;90.50;;;;;;5112167;28;20214;-71
2022/03/25 03:28:08;;;;;;;19.63;13.15;;;3.70;90.60;;;;;;5112043;28;20202;-72
2022/03/25 03:30:36;;;;;;;16.60;12.80;;;3.60;90.70;;;;;;5111813;28;20210;-71
2022/03/25 03:33:04;;;;;;;17.88;12.35;;;3.50;90.80;;;;;;5112171;28;20203;-71
2022/03/25 03:35:34;;;;;;;18.95;13.15;;;3.50;90.90;;;;;;5111986;28;20227;-71
2022/03/25 03:38:01;;;;;;;18.98;12.07;;;3.50;91.10;;;;;;5111556;28;20252;-71
2022/03/25 03:40:28;;;;;;;17.13;11.98;;;3.50;91.20;;;;;;5112265;28;20203;-72
2022/03/25 03:42:54;;;;;;;20.83;14.63;;;3.50;91.30;;;;;;5111897;28;20550;-71
2022/03/25 03:45:21;;;;;;;18.55;11.75;;;3.50;91.40;;;;;;5112311;28;20215;-71
2022/03/25 03:47:49;;;;;;;20.23;12.73;;;3.50;91.50;;;;;;5111973;28;20225;-70
2022/03/25 03:50:17;;;;;;;17.85;12.48;;;3.50;91.70;;;;;;5111699;28;20222;-70
2022/03/25 03:52:45;;;;;;;20.95;13.30;;;3.50;91.80;;;;;;5111782;28;20337;-70
2022/03/25 03:55:12;;;;;;;21.85;12.88;;;3.40;91.90;;;;;;5111707;28;20599;-70
2022/03/25 03:57:39;;;;;;;21.77;13.80;;;3.40;91.90;;;;;;5111284;28;20577;-71
2022/03/25 04:00:09;;;;;;;16.95;11.88;;;3.40;92.10;;;;;;5111801;28;20931;-71
2022/03/25 04:02:35;;;;;;;20.63;14.30;;;3.40;92.20;;;;;;5111800;28;20231;-70
2022/03/25 04:05:04;;;;;;;22.95;14.13;;;3.30;92.10;;;;;;5111306;28;20222;-71
2022/03/25 04:07:30;;;;;;;22.80;13.50;;;3.30;92.20;;;;;;5111390;28;20210;-71
2022/03/25 04:09:57;;;;;;;22.45;15.75;;;3.30;92.30;;;;;;5111664;28;20570;-71
2022/03/25 04:12:24;;;;;;;21.00;13.57;;;3.30;92.30;;;;;;5111594;28;20237;-70
2022/03/25 04:14:51;;;;;;;23.27;14.38;;;3.30;92.20;;;;;;5111445;28;20227;-70
2022/03/25 04:17:19;;;;;;;22.02;13.88;;;3.30;92.30;;;;;;5114010;28;20202;-71
2022/03/25 04:19:46;;;;;;;23.92;15.15;;;3.20;92.30;;;;;;5120749;28;20210;-71
2022/03/25 04:22:14;;;;;;;21.60;13.10;;;3.20;92.80;;;;;;5116587;28;20199;-71
2022/03/25 04:24:41;;;;;;;24.13;13.90;;;3.20;92.80;;;;;;5112305;28;20209;-71
2022/03/25 04:27:09;;;;;;;19.50;13.40;;;3.20;92.70;;;;;;5111350;28;20199;-70
2022/03/25 04:29:35;;;;;;;22.02;14.20;;;3.20;92.70;;;;;;5112051;28;20213;-71
2022/03/25 04:32:02;;;;;;;20.02;14.25;;;3.20;92.70;;;;;;5110046;28;20528;-71
2022/03/25 04:34:29;;;;;;;17.85;12.65;;;3.20;92.50;;;;;;5074284;28;20193;-71
2022/03/25 04:36:56;;;;;;;21.27;13.82;;;3.20;92.40;;;;;;5083008;28;20208;-71
2022/03/25 04:39:24;;;;;;;18.83;13.20;;;3.10;92.30;;;;;;5087550;28;20214;-70
2022/03/25 04:41:50;;;;;;;20.10;12.95;;;3.10;92.30;;;;;;5087986;28;20192;-70
2022/03/25 04:44:17;;;;;;;24.40;13.80;;;3.10;92.30;;;;;;5089105;28;20469;-70
2022/03/25 04:46:44;;;;;;;21.27;13.98;;;3.10;92.20;;;;;;5089950;28;20216;-70
2022/03/25 04:49:10;;;;;;;20.95;14.10;;;3.10;92.40;;;;;;5097082;28;20203;-70
2022/03/25 04:51:37;;;;;;;21.35;14.15;;;3.10;92.30;;;;;;5097342;28;20226;-70
2022/03/25 04:54:04;;;;;;;21.63;14.65;;;3.00;92.20;;;;;;5085915;28;20196;-71
2022/03/25 04:56:34;;;;;;;22.65;14.90;;;3.00;92.20;;;;;;5095423;28;20208;-72
2022/03/25 04:59:00;;;;;;;18.55;12.93;;;2.90;92.20;;;;;;5087861;28;20295;-71
2022/03/25 05:01:27;;;;;;;19.33;14.55;;;2.90;92.20;;;;;;5084207;28;20200;-73
2022/03/25 05:03:54;;;;;;;21.50;13.50;;;2.90;92.40;;;;;;5092550;28;20214;-72
2022/03/25 05:06:20;;;;;;;25.40;14.85;;;2.90;92.50;;;;;;5100440;28;20216;-71
2022/03/25 05:08:47;;;;;;;23.48;13.32;;;2.90;92.80;;;;;;5090047;28;20199;-71
2022/03/25 05:11:14;;;;;;;19.75;14.27;;;2.90;92.90;;;;;;5100258;28;20477;-72
2022/03/25 05:13:42;;;;;;;22.63;14.85;;;2.90;93.10;;;;;;5093980;28;20208;-72
2022/03/25 05:16:08;;;;;;;21.33;14.38;;;2.80;93.30;;;;;;5093636;28;20231;-71
2022/03/25 05:18:35;;;;;;;25.92;14.18;;;2.80;93.30;;;;;;5093464;28;20199;-70
2022/03/25 05:21:02;;;;;;;23.50;14.60;;;2.80;93.30;;;;;;5093964;28;20253;-70
2022/03/25 05:23:29;;;;;;;23.38;14.00;;;2.80;93.30;;;;;;5093734;28;20599;-71
2022/03/25 05:25:55;;;;;;;18.75;14.70;;;2.90;93.20;;;;;;5093545;28;20234;-71
2022/03/25 05:28:22;;;;;;;21.45;14.15;;;2.90;93.10;;;;;;5093779;28;20196;-71
2022/03/25 05:30:50;;;;;;;25.33;15.25;;;3.00;93.00;;;;;;5094012;28;20199;-70
2022/03/25 05:33:17;;;;;;;21.83;14.95;;;3.00;93.10;;;;;;5094176;28;20235;-71
2022/03/25 05:35:44;;;;;;;21.17;13.05;;;2.90;93.20;;;;;;5093867;28;20227;-71
2022/03/25 05:38:10;;;;;;;22.70;13.75;;;2.80;93.20;;;;;;5094122;28;20203;-70
2022/03/25 05:40:38;;;;;;;22.38;14.23;;;2.80;93.30;;;;;;5093920;28;20207;-72
2022/03/25 05:45:32;;;;;;;23.92;14.60;;;2.70;93.10;;;;;;5072018;28;20224;-68
2022/03/25 05:48:00;;;;;;;18.75;13.70;;;2.70;93.20;;;;;;5093511;28;20203;-67
2022/03/25 05:50:28;;;;;;;24.00;15.77;;;2.70;93.30;;;;;;5093840;28;20697;-68
2022/03/25 05:52:55;;;;;;;23.80;13.95;;;2.70;93.30;;;;;;5093558;28;20228;-68
2022/03/25 05:55:21;;;;;;;20.42;13.70;;;2.80;93.20;;;;;;5093020;28;20227;-68
2022/03/25 05:57:48;;;;;;;25.10;16.17;;;2.90;93.30;;;;;;5092234;28;20200;-68
2022/03/25 06:00:16;;;;;;;22.17;14.57;;;2.90;93.30;;;;;;5093388;28;20581;-68
2022/03/25 06:02:43;;;;;;;20.25;14.32;;;3.00;93.20;;;;;;5092749;28;20196;-68
2022/03/25 06:05:12;;;;;;;22.20;14.07;;;3.00;93.20;;;;;;5093039;28;20223;-67
2022/03/25 06:07:40;;;;;;;20.60;14.27;;;3.10;93.40;;;;;;5092028;28;20202;-68
2022/03/25 06:10:08;;;;;;;20.13;13.50;;;3.10;93.50;;;;;;5093499;28;20200;-67
2022/03/25 06:12:35;;;;;;;22.42;14.05;;;3.20;93.50;;;;;;5092380;28;20318;-68
2022/03/25 06:15:03;;;;;;;22.58;15.32;;;3.20;93.30;;;;;;5092576;28;20220;-67
2022/03/25 06:17:29;;;;;;;21.65;14.43;;;3.30;93.30;;;;;;5092462;28;20200;-68
2022/03/25 06:19:56;;;;;;;21.63;13.85;;;3.40;93.30;;;;;;5092669;28;20223;-67
2022/03/25 06:22:24;;;;;;;23.80;15.13;;;3.50;93.10;;;;;;5093154;28;20291;-68
2022/03/25 06:24:52;;;;;;;22.75;14.25;;;3.60;93.00;;;;;;5092528;28;20730;-67
2022/03/25 06:27:19;;;;;;;23.05;15.15;;;3.70;93.10;;;;;;5092539;28;20231;-67
2022/03/25 06:29:45;;;;;;;24.60;14.73;;;3.80;93.20;;;;;;5092486;28;20663;-67
2022/03/25 06:32:12;;;;;;;25.17;15.20;;;3.90;93.20;;;;;;5092953;28;20575;-67
2022/03/25 06:34:39;;;;;;;20.98;13.57;;;4.00;93.20;;;;;;5092770;28;20196;-67
2022/03/25 06:37:05;;;;;;;22.30;14.60;;;4.10;93.20;;;;;;5091959;28;20196;-67
2022/03/25 06:39:34;;;;;;;25.90;15.55;;;4.20;93.20;;;;;;5092693;28;20559;-67
2022/03/25 06:42:01;;;;;;;23.63;14.10;;;4.30;93.10;;;;;;5092495;28;20769;-67
2022/03/25 06:44:28;;;;;;;24.80;14.70;;;4.50;92.50;;;;;;5092611;28;20692;-67
2022/03/25 06:46:54;;;;;;;18.60;14.05;;;4.70;92.30;;;;;;5091565;28;20299;-67
2022/03/25 06:49:21;;;;;;;23.35;14.13;;;4.80;92.60;;;;;;5092669;28;20199;-67
2022/03/25 06:51:49;;;;;;;21.95;14.73;;;5.00;92.90;;;;;;5091936;28;20306;-68
2022/03/25 06:54:16;;;;;;;21.85;15.60;;;5.10;92.90;;;;;;5092583;28;20261;-67
2022/03/25 06:56:45;;;;;;;23.55;14.23;;;5.30;92.90;;;;;;5091323;28;20797;-67
2022/03/25 06:59:12;;;;;;;27.52;16.60;;;5.40;92.80;;;;;;5091889;28;20646;-68
2022/03/25 07:01:39;;;;;;;24.30;14.77;;;5.50;92.70;;;;;;5089644;28;20474;-67
2022/03/25 07:04:07;;;;;;;22.13;15.73;;;5.70;92.60;;;;;;5091974;28;20200;-68
2022/03/25 07:06:38;;;;;;;27.63;16.77;;;5.90;92.60;;;;;;5091593;28;20226;-68
2022/03/25 07:09:06;;;;;;;23.42;14.55;;;6.10;92.00;;;;;;5091827;28;20732;-67
2022/03/25 07:11:33;;;;;;;24.50;15.40;;;6.20;91.90;;;;;;5091827;28;20199;-68
2022/03/25 07:14:01;;;;;;;28.77;16.70;;;6.40;91.80;;;;;;5091819;28;20219;-68
2022/03/25 07:16:27;;;;;;;25.50;16.27;;;6.60;91.60;;;;;;5091407;28;20598;-67
2022/03/25 07:18:55;;;;;;;27.08;17.85;;;6.90;92.00;;;;;;5091290;28;20207;-68
2022/03/25 07:21:22;;;;;;;24.15;15.98;;;7.20;90.80;;;;;;5091679;28;20195;-68
2022/03/25 07:23:49;;;;;;;23.15;16.42;;;7.60;90.80;;;;;;5091579;28;20199;-68
2022/03/25 07:26:17;;;;;;;28.60;17.63;;;8.10;90.20;;;;;;5090472;28;20711;-68
2022/03/25 07:28:43;;;;;;;27.27;17.25;;;8.60;88.90;;;;;;5090851;28;20290;-68
2022/03/25 07:31:12;;;;;;;26.38;16.38;;;9.20;89.00;;;;;;5091188;28;20208;-68
2022/03/25 07:33:38;;;;;;;30.35;18.00;;;9.90;87.60;;;;;;5091219;28;20591;-68
2022/03/25 07:36:05;;;;;;;22.67;17.15;;;10.50;85.80;;;;;;5091158;28;20216;-68
2022/03/25 07:38:32;;;;;;;32.20;19.33;;;11.10;83.40;;;;;;5090620;28;20579;-68
2022/03/25 07:40:59;;;;;;;25.58;18.20;;;11.60;83.40;;;;;;5091405;28;20199;-68
2022/03/25 07:43:25;;;;;;;32.37;18.60;;;12.30;81.00;;;;;;5090874;28;20200;-68
2022/03/25 07:45:52;;;;;;;30.53;18.73;;;12.90;80.40;;;;;;5091070;28;20513;-68
2022/03/25 07:48:20;;;;;;;25.57;16.77;;;13.50;78.00;;;;;;5090305;28;20460;-68
2022/03/25 07:50:47;;;;;;;23.17;17.20;;;13.90;76.60;;;;;;5091328;28;20957;-68
2022/03/25 07:53:14;;;;;;;24.53;17.77;;;14.40;74.20;;;;;;5090752;28;20481;-68
2022/03/25 07:55:42;;;;;;;24.57;16.87;;;14.90;72.60;;;;;;5090878;28;20477;-68
2022/03/25 07:58:08;;;;;;;28.80;19.10;;;15.50;71.60;;;;;;5090125;28;20515;-68
2022/03/25 08:00:35;;;;;;;29.23;19.20;;;16.00;70.70;;;;;;5090808;28;20502;-68
2022/03/25 08:03:02;;;;;;;27.93;19.53;;;16.50;69.90;;;;;;5090948;28;20486;-68
2022/03/25 08:05:30;;;;;;;22.83;17.80;;;17.10;69.70;;;;;;5090441;28;21004;-68
2022/03/25 08:07:57;;;;;;;27.27;18.73;;;17.50;69.70;;;;;;5090291;28;20457;-69
2022/03/25 08:10:25;;;;;;;27.50;18.50;;;18.00;66.60;;;;;;5090454;28;20461;-68
2022/03/25 08:12:53;;;;;;;27.40;19.57;;;18.40;64.60;;;;;;5090743;28;20497;-69
2022/03/25 08:15:20;;;;;;;28.00;19.73;;;18.80;63.40;;;;;;5090616;28;20516;-69
2022/03/25 08:17:54;;;;;;;25.70;19.73;;;19.00;62.40;;;;;;5089886;28;20472;-69
2022/03/25 08:20:23;;;;;;;27.53;20.10;;;19.10;62.10;;;;;;5090452;28;20464;-69
2022/03/25 08:22:51;;;;;;;24.30;18.57;;;19.00;60.90;;;;;;5090820;28;20457;-69
2022/03/25 08:28:02;;;;;;;28.53;20.10;;;19.60;60.60;;;;;;5089995;28;20520;-69
2022/03/25 08:30:30;;;;;;;29.50;21.13;;;19.90;59.20;;;;;;5090479;28;20784;-69
2022/03/25 08:32:58;;;;;;;25.60;19.30;;;20.50;59.20;;;;;;5090369;28;20481;-68
2022/03/25 08:35:24;;;;;;;31.27;21.00;;;20.90;59.00;;;;;;5090134;28;20482;-69
2022/03/25 08:37:53;;;;;;;23.50;19.60;;;21.40;58.20;;;;;;5089788;28;20820;-69
2022/03/25 08:40:21;;;;;;;24.47;20.07;;;21.50;58.00;;;;;;5090478;28;20497;-69
2022/03/25 08:42:47;;;;;;;26.50;20.47;;;21.90;57.20;;;;;;5089836;28;20834;-68
2022/03/25 08:45:16;;;;;;;25.50;20.70;;;22.40;55.50;;;;;;5090287;28;20528;-69
2022/03/25 08:47:43;;;;;;;23.00;19.90;;;22.30;56.50;;;;;;5089535;28;20461;-68
2022/03/25 08:50:12;;;;;;;24.13;20.40;;;22.10;55.90;;;;;;5090431;28;20461;-68
2022/03/25 08:52:39;;;;;;;24.67;20.50;;;22.50;56.70;;;;;;5089731;28;20481;-68
2022/03/25 08:55:09;;;;;;;23.60;20.23;;;22.60;55.90;;;;;;5090154;28;20482;-68
2022/03/25 08:57:36;;;;;;;28.90;20.47;;;23.20;55.70;;;;;;5089349;28;20545;-69
2022/03/25 09:00:04;;;;;;;26.17;19.87;;;23.50;54.70;;;;;;5089914;28;20458;-68
2022/03/25 09:02:30;;;;;;;26.50;20.90;;;23.90;53.80;;;;;;5090118;28;20457;-68
2022/03/25 09:04:57;;;;;;;24.80;20.20;;;24.40;53.70;;;;;;5089563;28;20474;-69
2022/03/25 09:07:24;;;;;;;25.23;20.23;;;24.40;52.40;;;;;;5089570;28;20461;-68
2022/03/25 09:09:50;;;;;;;24.70;21.10;;;24.70;53.80;;;;;;5089801;28;20473;-69
2022/03/25 09:12:18;;;;;;;25.70;21.30;;;25.40;52.00;;;;;;5090138;28;20462;-69
2022/03/25 09:14:45;;;;;;;24.27;21.47;;;25.70;52.20;;;;;;5089328;28;20521;-68
2022/03/25 09:17:12;;;;;;;26.10;21.23;;;25.40;52.70;;;;;;5089493;28;20903;-68
2022/03/25 09:19:38;;;;;;;23.33;20.17;;;25.70;50.50;;;;;;5089671;28;20866;-69
2022/03/25 09:22:05;;;;;;;25.33;21.93;;;26.20;51.30;;;;;;5089961;28;20466;-69
2022/03/25 09:24:32;;;;;;;23.37;19.70;;;26.50;49.70;;;;;;5089535;28;20461;-68
2022/03/25 09:26:59;;;;;;;26.07;21.07;;;26.60;50.00;;;;;;5089190;28;20952;-68
2022/03/25 09:29:27;;;;;;;23.20;20.70;;;26.30;49.80;;;;;;5090158;28;20886;-69
2022/03/25 09:31:54;;;;;;;25.17;21.47;;;26.90;48.60;;;;;;5089843;28;20454;-69
2022/03/25 09:37:06;;;;;;;24.07;20.90;;;27.10;49.10;;;;;;5089377;28;21042;-69
2022/03/25 09:39:33;;;;;;;25.30;21.60;;;27.30;48.90;;;;;;5090174;28;20461;-69
2022/03/25 09:42:00;;;;;;;22.83;20.40;;;27.50;49.00;;;;;;5089807;28;20465;-69
2022/03/25 09:44:29;;;;;;;22.77;20.47;;;27.90;48.70;;;;;;5089730;28;20461;-69
2022/03/25 09:46:55;;;;;;;21.40;19.20;;;28.10;47.70;;;;;;5089315;28;20461;-69
2022/03/25 09:49:22;;;;;;;22.37;20.07;;;28.30;46.50;;;;;;5092591;28;20465;-69
2022/03/25 09:51:49;;;;;;;20.93;18.77;;;28.30;47.00;;;;;;5093508;28;20783;-69
2022/03/25 09:54:17;;;;;;;22.20;20.00;;;28.40;47.20;;;;;;5093264;28;20494;-69
2022/03/25 09:56:44;;;;;;;24.40;20.77;;;28.60;47.20;;;;;;5092531;28;20492;-69
2022/03/25 09:59:15;;;;;;;22.03;19.77;;;28.70;47.40;;;;;;5093112;28;20830;-69
2022/03/25 10:01:43;;;;;;;22.03;19.73;;;28.40;47.20;;;;;;5093378;28;20458;-69
2022/03/25 10:04:30;;;;;;;22.47;20.20;;;28.70;46.00;;;;;;5092441;28;20454;-69
2022/03/25 10:06:57;;;;;;;21.97;19.70;;;28.40;45.10;;;;;;5092107;28;20475;-69
2022/03/25 10:09:24;;;;;;;22.87;20.03;;;28.80;45.50;;;;;;5092599;28;20459;-69
2022/03/25 10:11:50;;;;;;;24.80;20.90;;;29.30;44.70;;;;;;5092874;28;20458;-69
2022/03/25 10:14:19;;;;;;;23.00;20.50;;;29.00;44.40;;;;;;5093037;28;20488;-69
2022/03/25 10:16:49;;;;;;;23.37;20.97;;;28.80;44.20;;;;;;5091750;28;20486;-69
2022/03/25 10:19:21;;;;;;;22.93;20.40;;;29.00;45.30;;;;;;5093076;28;20459;-69
2022/03/25 10:21:52;;;;;;;24.87;19.80;;;29.20;43.60;;;;;;5092419;28;20464;-69
2022/03/25 10:24:35;;;;;;;25.63;21.00;;;29.10;45.10;;;;;;5092234;28;20456;-69
2022/03/25 10:27:04;;;;;;;25.20;22.40;;;29.20;44.30;;;;;;5091963;28;20481;-69
2022/03/25 10:29:31;;;;;;;22.20;19.90;;;28.90;44.40;;;;;;5092765;28;20492;-69
2022/03/25 10:32:07;;;;;;;22.07;19.77;;;29.30;45.50;;;;;;5092559;28;20475;-69
2022/03/25 10:34:34;;;;;;;23.67;21.10;;;29.60;45.40;;;;;;5092553;28;20484;-68
2022/03/25 10:37:02;;;;;;;23.90;21.43;;;30.00;44.20;;;;;;5092111;28;20483;-69
2022/03/25 10:39:30;;;;;;;23.63;21.13;;;29.60;44.40;;;;;;5092176;28;20461;-69
2022/03/25 10:41:59;;;;;;;22.53;20.20;;;29.80;43.70;;;;;;5092498;28;20466;-69
2022/03/25 10:44:34;;;;;;;30.30;22.53;;;30.40;43.70;;;;;;5091957;28;20846;-69
2022/03/25 10:47:19;;;;;;;24.20;21.70;;;30.70;42.90;;;;;;5091894;28;20952;-69
2022/03/25 10:49:49;;;;;;;23.27;20.87;;;30.30;43.80;;;;;;5092044;28;20478;-69
2022/03/25 10:52:22;;;;;;;23.40;19.20;;;30.40;43.00;;;;;;5092542;28;20469;-69
2022/03/25 10:54:49;;;;;;;22.43;20.20;;;30.90;42.60;;;;;;5091776;28;20528;-69
2022/03/25 10:57:17;;;;;;;22.77;20.00;;;30.90;43.80;;;;;;5091773;28;20462;-69
2022/03/25 10:59:57;;;;;;;24.53;21.43;;;30.60;42.50;;;;;;5092117;28;20470;-69
2022/03/25 11:02:24;;;;;;;22.13;19.90;;;30.80;43.90;;;;;;5092127;28;20460;-69
2022/03/25 11:04:53;;;;;;;24.67;22.17;;;30.80;43.60;;;;;;5092041;28;20479;-69
2022/03/25 11:07:22;;;;;;;22.80;20.40;;;31.20;42.20;;;;;;5091108;28;20467;-69
2022/03/25 11:09:51;;;;;;;21.93;19.73;;;30.90;42.70;;;;;;5091871;28;20835;-69
2022/03/25 11:12:18;;;;;;;24.50;20.40;;;31.20;42.10;;;;;;5091965;28;20536;-69
2022/03/25 11:14:45;;;;;;;22.60;20.37;;;31.40;41.20;;;;;;5091620;28;20533;-69
2022/03/25 11:17:12;;;;;;;22.30;20.20;;;30.90;41.10;;;;;;5091124;28;20469;-69
2022/03/25 11:19:39;;;;;;;21.47;19.20;;;30.50;40.40;;;;;;5091815;28;20458;-69
2022/03/25 11:22:09;;;;;;;22.30;18.73;;;31.20;40.90;;;;;;5091746;28;20963;-69
2022/03/25 11:24:38;;;;;;;22.23;20.13;;;31.70;41.40;;;;;;5091404;28;20481;-69
2022/03/25 11:27:14;;;;;;;22.50;20.20;;;32.00;40.00;;;;;;5091599;28;20462;-69
2022/03/25 11:29:45;;;;;;;22.07;19.87;;;32.10;40.10;;;;;;5091292;28;20952;-69
2022/03/25 11:32:14;;;;;;;19.83;17.90;;;31.90;39.40;;;;;;5091625;28;20663;-69
2022/03/25 11:34:45;;;;;;;23.23;21.00;;;32.30;40.20;;;;;;5090787;28;20489;-69
2022/03/25 11:37:19;;;;;;;20.83;18.73;;;32.00;39.40;;;;;;5091061;28;20747;-69
2022/03/25 11:39:45;;;;;;;20.27;18.37;;;32.00;39.90;;;;;;5091030;28;20462;-69
2022/03/25 11:42:37;;;;;;;21.67;19.30;;;32.10;39.20;;;;;;5091485;28;20468;-70
2022/03/25 11:47:31;;;;;;;20.17;18.23;;;31.70;39.80;;;;;;5048901;28;20473;-72
2022/03/25 11:50:25;;;;;;;21.60;19.50;;;31.60;39.80;;;;;;5051028;28;20472;-72
2022/03/25 11:52:54;;;;;;;24.03;19.00;;;31.00;38.90;;;;;;5051079;28;20481;-71
2022/03/25 11:55:21;;;;;;;21.40;19.20;;;31.60;40.80;;;;;;5051002;28;20489;-71
2022/03/25 11:57:48;;;;;;;21.70;19.60;;;31.90;38.80;;;;;;5050231;28;20676;-71
2022/03/25 12:00:23;;;;;;;22.00;19.70;;;31.90;38.50;;;;;;5051150;28;20443;-71
2022/03/25 12:03:01;;;;;;;23.03;20.70;;;31.10;40.40;;;;;;5050721;28;21000;-71
2022/03/25 12:05:38;;;;;;;21.43;19.23;;;31.00;40.00;;;;;;5050873;28;20485;-71
2022/03/25 12:08:27;;;;;;;22.03;19.93;;;30.70;40.00;;;;;;5049944;28;20999;-71
2022/03/25 12:10:55;;;;;;;19.10;17.20;;;30.70;38.80;;;;;;5050345;28;20462;-71
2022/03/25 12:13:23;;;;;;;21.50;19.20;;;31.20;40.20;;;;;;5050955;28;20473;-71
2022/03/25 12:15:52;;;;;;;21.67;19.57;;;31.00;39.80;;;;;;5050272;28;20479;-71
2022/03/25 12:18:42;;;;;;;20.77;18.87;;;30.80;39.40;;;;;;5050383;28;20487;-72
2022/03/25 12:21:13;;;;;;;19.40;17.50;;;31.00;40.70;;;;;;5050382;28;21039;-71
2022/03/25 12:23:41;;;;;;;19.93;18.13;;;31.00;38.90;;;;;;5050627;28;20745;-71
2022/03/25 12:26:07;;;;;;;21.30;19.10;;;30.80;40.10;;;;;;5050337;28;20492;-72
2022/03/25 12:28:34;;;;;;;21.80;19.23;;;30.90;39.60;;;;;;5050317;28;20460;-71
2022/03/25 12:31:03;;;;;;;21.23;19.10;;;30.80;39.20;;;;;;5050836;28;20466;-71
2022/03/25 12:33:31;;;;;;;20.60;18.60;;;30.80;39.90;;;;;;5050702;28;21088;-71
2022/03/25 12:35:59;;;;;;;18.10;16.40;;;31.20;39.40;;;;;;5050272;28;20864;-71
2022/03/25 12:38:26;;;;;;;17.40;15.70;;;31.30;38.90;;;;;;5049839;28;20488;-71
2022/03/25 12:40:55;;;;;;;18.80;16.90;;;31.20;38.30;;;;;;5050423;28;20473;-71
2022/03/25 12:43:29;;;;;;;18.10;16.43;;;31.20;38.70;;;;;;5049766;28;20464;-71
2022/03/25 12:45:57;;;;;;;18.70;17.00;;;31.30;37.80;;;;;;5050322;28;20493;-71
2022/03/25 12:48:24;;;;;;;18.67;16.87;;;31.40;40.20;;;;;;5049605;28;20460;-72